Time;durP1;ratioP1;P1;durP2;ratioP2;P2;SDS_P1;SDS_P2;PMS_P1;PMS_P2;Temp;Humidity;BMP_temperature;BMP_pressure;BME280_temperature;BME280_humidity;BME280_pressure;Samples;Min_cycle;Max_cycle;Signal;HPM_P1;HPM_P2
2024/03/04 00:10:03;;;;;;;;;;;9.60;99.90;;;;;;6274487;22;19904;-87
2024/03/04 00:12:35;;;;;;;;;;;9.80;99.90;;;;;;6240713;23;19989;-90
2024/03/04 00:15:03;;;;;;;;;;;10.50;99.90;;;;;;6235358;23;20287;-91
2024/03/04 00:17:30;;;;;;;;;;;9.90;99.90;;;;;;6234205;23;19985;-90
2024/03/04 00:20:00;;;;;;;;;;;9.50;99.90;;;;;;6234237;23;19924;-90
2024/03/04 00:22:34;;;;;;;;;;;9.10;99.90;;;;;;6244990;23;19953;-89
2024/03/04 00:25:16;;;;;;;;;;;10.30;99.90;;;;;;6246304;23;19929;-90
2024/03/04 00:27:44;;;;;;;;;;;9.50;99.90;;;;;;6245544;23;19964;-89
2024/03/04 00:30:15;;;;;;;;;;;9.90;99.90;;;;;;6246099;23;19960;-89
2024/03/04 00:35:46;;;;;;;;;;;9.50;99.90;;;;;;6230621;23;19908;-90
2024/03/04 00:41:21;;;;;;;;;;;10.70;99.90;;;;;;6231822;23;19982;-92
2024/03/04 00:44:11;;;;;;;;;;;9.90;99.90;;;;;;6244613;23;20349;-92
2024/03/04 00:46:47;;;;;;;;;;;8.30;99.90;;;;;;6235389;23;19982;-91
2024/03/04 00:49:28;;;;;;;;;;;10.00;1.00;;;;;;6233532;23;19920;-91
2024/03/04 00:52:00;;;;;;;;;;;11.20;1.00;;;;;;6245981;23;19970;-89
2024/03/04 00:54:37;;;;;;;;;;;9.00;1.00;;;;;;6245560;23;19924;-90
2024/03/04 00:57:15;;;;;;;;;;;9.50;1.00;;;;;;6245703;23;19922;-91
2024/03/04 00:59:49;;;;;;;;;;;9.50;1.00;;;;;;6233523;23;19920;-92
2024/03/04 01:02:18;;;;;;;;;;;9.40;1.00;;;;;;6242334;23;19904;-93
2024/03/04 01:04:48;;;;;;;;;;;9.50;1.00;;;;;;6233848;23;19943;-92
2024/03/04 01:07:30;;;;;;;;;;;10.90;1.00;;;;;;6234029;23;19966;-92
2024/03/04 01:13:00;;;;;;;;;;;10.50;1.00;;;;;;6166585;23;19932;-91
2024/03/04 01:15:35;;;;;;;;;;;9.80;1.00;;;;;;6164656;23;19964;-92
2024/03/04 01:18:18;;;;;;;;;;;9.50;1.00;;;;;;6218795;23;19986;-91
2024/03/04 01:20:54;;;;;;;;;;;9.70;1.00;;;;;;6226233;23;19951;-91
2024/03/04 01:23:23;;;;;;;;;;;9.30;1.00;;;;;;6239340;23;19926;-90
2024/03/04 01:25:54;;;;;;;;;;;9.80;1.00;;;;;;6238845;23;19920;-90
2024/03/04 01:28:27;;;;;;;;;;;8.40;1.00;;;;;;6240788;23;19958;-90
2024/03/04 01:30:57;;;;;;;;;;;10.40;1.00;;;;;;6240412;23;19942;-90
2024/03/04 01:33:27;;;;;;;;;;;9.10;1.00;;;;;;6231956;23;19927;-91
2024/03/04 01:36:00;;;;;;;;;;;9.50;1.00;;;;;;6236123;23;20240;-91
2024/03/04 01:38:36;;;;;;;;;;;8.50;1.00;;;;;;6233396;23;19927;-91
2024/03/04 01:41:09;;;;;;;;;;;9.80;1.00;;;;;;6245273;23;19944;-90
2024/03/04 01:44:00;;;;;;;;;;;9.10;1.00;;;;;;6245352;23;19918;-91
2024/03/04 01:46:43;;;;;;;;;;;8.90;1.00;;;;;;6244731;23;19960;-92
2024/03/04 01:49:32;;;;;;;;;;;10.60;1.00;;;;;;6231420;23;19947;-91
2024/03/04 01:55:11;;;;;;;;;;;10.20;1.00;;;;;;6212608;23;19962;-91
2024/03/04 01:57:44;;;;;;;;;;;8.80;1.00;;;;;;6227787;23;19991;-92
2024/03/04 02:00:23;;;;;;;;;;;7.80;1.00;;;;;;6230035;23;19920;-91
2024/03/04 02:03:06;;;;;;;;;;;9.30;1.00;;;;;;6227057;23;19941;-91
2024/03/04 02:05:37;;;;;;;;;;;9.20;12.90;;;;;;6243926;23;19920;-91
2024/03/04 02:08:22;;;;;;;;;;;9.40;4.00;;;;;;6229894;23;20380;-91
2024/03/04 02:10:54;;;;;;;;;;;9.10;7.50;;;;;;6225103;23;19959;-91
2024/03/04 02:13:33;;;;;;;;;;;8.90;19.20;;;;;;6225443;23;19939;-92
2024/03/04 02:16:12;;;;;;;;;;;8.50;14.10;;;;;;6225953;23;19943;-91
2024/03/04 02:18:43;;;;;;;;;;;8.40;14.80;;;;;;6227281;23;20015;-90
2024/03/04 02:21:26;;;;;;;;;;;10.10;23.10;;;;;;6226842;23;19959;-91
2024/03/04 02:24:16;;;;;;;;;;;7.90;35.60;;;;;;6226112;23;19947;-91
2024/03/04 02:26:51;;;;;;;;;;;9.00;29.50;;;;;;6227430;23;19952;-91
2024/03/04 02:29:19;;;;;;;;;;;9.00;29.20;;;;;;6237378;23;19987;-89
2024/03/04 02:31:46;;;;;;;;;;;8.20;43.60;;;;;;6237606;23;19951;-90
2024/03/04 02:34:22;;;;;;;;;;;9.30;44.30;;;;;;6238871;23;19947;-90
2024/03/04 02:36:54;;;;;;;;;;;8.90;44.00;;;;;;6226379;23;19932;-91
2024/03/04 02:39:33;;;;;;;;;;;9.10;43.80;;;;;;6226770;23;19951;-92
2024/03/04 02:42:13;;;;;;;;;;;8.70;40.20;;;;;;6224966;23;19958;-92
2024/03/04 02:44:54;;;;;;;;;;;8.20;46.20;;;;;;6225066;23;19973;-92
2024/03/04 02:47:28;;;;;;;;;;;8.50;42.30;;;;;;6232841;23;19910;-90
2024/03/04 02:55:57;;;;;;;;;;;8.30;42.40;;;;;;6139304;23;20379;-91
2024/03/04 02:59:00;;;;;;;;;;;8.80;44.90;;;;;;6220851;23;19959;-90
2024/03/04 03:01:48;;;;;;;;;;;8.80;52.20;;;;;;6227525;23;20072;-90
2024/03/04 03:04:33;;;;;;;;;;;8.90;49.70;;;;;;6226170;23;19945;-92
2024/03/04 03:10:04;;;;;;;;;;;8.60;59.40;;;;;;6211242;23;19971;-91
2024/03/04 03:12:45;;;;;;;;;;;8.40;63.50;;;;;;6221745;23;19946;-91
2024/03/04 03:15:31;;;;;;;;;;;8.20;84.30;;;;;;6224695;23;19920;-91
2024/03/04 03:18:05;;;;;;;;;;;8.50;68.90;;;;;;6228014;23;19948;-91
2024/03/04 03:20:56;;;;;;;;;;;9.00;71.40;;;;;;6244105;23;19941;-89
2024/03/04 03:23:31;;;;;;;;;;;8.20;82.60;;;;;;6210090;23;19961;-91
2024/03/04 03:26:22;;;;;;;;;;;10.20;85.10;;;;;;6230855;23;20022;-92
2024/03/04 03:29:07;;;;;;;;;;;8.80;70.00;;;;;;6234770;23;19950;-90
2024/03/04 03:31:42;;;;;;;;;;;9.00;75.70;;;;;;6243478;23;19951;-91
2024/03/04 03:37:15;;;;;;;;;;;9.00;80.30;;;;;;6236530;23;19939;-92
2024/03/04 03:39:49;;;;;;;;;;;8.90;78.30;;;;;;6239143;23;19958;-92
2024/03/04 03:42:19;;;;;;;;;;;9.30;82.10;;;;;;6235138;23;20015;-91
2024/03/04 03:44:46;;;;;;;;;;;8.20;93.70;;;;;;6233215;23;19920;-91
2024/03/04 03:47:13;;;;;;;;;;;9.90;97.60;;;;;;6241140;23;19964;-92
2024/03/04 03:49:41;;;;;;;;;;;9.20;98.70;;;;;;6231634;23;19982;-91
2024/03/04 03:52:09;;;;;;;;;;;9.10;93.50;;;;;;6230911;23;19955;-90
2024/03/04 03:54:37;;;;;;;;;;;8.50;95.80;;;;;;6227984;23;20389;-91
2024/03/04 03:57:08;;;;;;;;;;;8.60;90.40;;;;;;6245214;23;19956;-88
2024/03/04 03:59:36;;;;;;;;;;;8.40;97.10;;;;;;6242506;23;19979;-92
2024/03/04 04:02:04;;;;;;;;;;;8.80;96.60;;;;;;6243840;23;19962;-92
2024/03/04 04:04:36;;;;;;;;;;;8.10;95.00;;;;;;6229946;23;19946;-92
2024/03/04 04:07:11;;;;;;;;;;;8.60;71.80;;;;;;6226257;23;19967;-92
2024/03/04 04:09:40;;;;;;;;;;;8.20;92.30;;;;;;6225781;23;19965;-91
2024/03/04 04:12:12;;;;;;;;;;;7.20;79.10;;;;;;6225604;23;19974;-91
2024/03/04 04:14:50;;;;;;;;;;;8.20;76.70;;;;;;6229851;23;19986;-91
2024/03/04 04:17:19;;;;;;;;;;;8.00;73.40;;;;;;6227503;23;19934;-92
2024/03/04 04:19:51;;;;;;;;;;;9.50;97.10;;;;;;6227020;23;19943;-92
2024/03/04 04:22:18;;;;;;;;;;;8.70;86.70;;;;;;6228753;23;19955;-90
2024/03/04 04:27:43;;;;;;;;;;;8.60;82.90;;;;;;6231546;23;19956;-92
2024/03/04 04:30:40;;;;;;;;;;;8.50;93.10;;;;;;6231845;23;19920;-92
2024/03/04 04:33:10;;;;;;;;;;;8.40;91.70;;;;;;6230810;23;19920;-92
2024/03/04 04:35:55;;;;;;;;;;;7.20;95.40;;;;;;6238089;23;19971;-92
2024/03/04 04:38:32;;;;;;;;;;;8.30;91.10;;;;;;6232221;23;19984;-91
2024/03/04 04:41:01;;;;;;;;;;;9.50;81.80;;;;;;6233748;23;19956;-91
2024/03/04 04:43:42;;;;;;;;;;;8.50;79.60;;;;;;6237460;23;20304;-89
2024/03/04 04:46:52;;;;;;;;;;;;;;;;;;;;;
2024/03/04 04:49:42;;;;;;;;;;;7.80;78.60;;;;;;6240631;23;19933;-90
2024/03/04 04:55:47;;;;;;;;;;;8.30;77.70;;;;;;6223828;23;19920;-92
2024/03/04 04:58:39;;;;;;;;;;;8.40;91.50;;;;;;6232323;23;19942;-92
2024/03/04 05:07:59;;;;;;;;;;;;;;;;;;;;;
2024/03/04 05:10:57;;;;;;;;;;;8.10;58.30;;;;;;6115494;23;19984;-90
2024/03/04 05:13:56;;;;;;;;;;;8.00;63.10;;;;;;6142541;23;19941;-92
2024/03/04 05:16:43;;;;;;;;;;;9.00;70.50;;;;;;6153614;23;19931;-90
2024/03/04 05:19:22;;;;;;;;;;;8.00;74.10;;;;;;6145467;23;20025;-92
2024/03/04 05:25:29;;;;;;;;;;;7.90;75.20;;;;;;6211423;23;19911;-92
2024/03/04 05:28:14;;;;;;;;;;;7.90;78.40;;;;;;6207964;23;19990;-91
2024/03/04 05:33:54;;;;;;;;;;;7.50;92.50;;;;;;6148959;23;19926;-89
2024/03/04 08:57:26;;;;;;;;;;;9.10;99.90;;;;;;6263664;22;19958;-90
2024/03/04 09:06:17;;;;;;;;;;;9.20;99.90;;;;;;6167029;22;19926;-90
2024/03/04 10:37:12;;;;;;;;;;;10.80;1.00;;;;;;6256575;22;19969;-94
2024/03/04 11:03:35;;;;;;;;;;;;;;;;;;;;;
2024/03/04 12:29:26;;;;;;;;;;;11.50;99.90;;;;;;6219258;23;19955;-91
2024/03/04 13:58:18;;;;;;;;;;;13.50;99.90;;;;;;6249713;22;19965;-90
2024/03/04 14:25:57;;;;;;;;;;;;;;;;;;;;;
2024/03/04 14:42:05;;;;;;;;;;;12.40;99.90;;;;;;6150664;23;19943;-89
2024/03/04 20:48:29;;;;;;;;;;;11.20;1.00;;;;;;6206912;22;19955;-91
2024/03/04 20:51:18;;;;;;;;;;;11.30;1.00;;;;;;6234790;23;19958;-92
